Pass A Grille Beach, Florida
Current Conditions -  °F | °C
As of 11:53 AM on Wednesday 26 Nov 2014 (Local Time) from KSPG Reporting Station
Few Clouds Few Clouds  
Wind Chill: 59°   Ceiling: Unl
Heat Index: 59°   Visibility: 10mi
Dew Point: 50°   Wind: 14mph
Humidity: 72%   Direction: 350°N
Pressure: 30.16"   Gusts: NA
Location:  27.7355°N, 82.7065°W
Report Text: KSPG 261653Z 35012KT 10SM FEW022 15/10 A3016 RMK AO2 SLP212 T01500100
Loading
Personal Weather Stations






























Interactive Weather Map New forecast layout! Learn more

10-Day Weather Forecast

Advertisements
Track Severe Weather on mobile